createdAt,value
2022-12-18T00:01:18.909Z,100.00
2022-12-18T00:03:46.875Z,100.00
2022-12-18T00:06:14.815Z,100.00
2022-12-18T00:08:43.227Z,100.00
2022-12-18T00:11:15.186Z,100.00
2022-12-18T00:13:42.988Z,100.00
2022-12-18T00:16:13.038Z,100.00
2022-12-18T00:18:41.156Z,100.00
2022-12-18T00:21:10.398Z,100.00
2022-12-18T00:23:39.172Z,100.00
2022-12-18T00:26:10.435Z,100.00
2022-12-18T00:28:39.840Z,100.00
2022-12-18T00:31:13.392Z,100.00
2022-12-18T00:33:40.753Z,100.00
2022-12-18T00:36:13.921Z,100.00
2022-12-18T00:38:41.895Z,100.00
2022-12-18T00:41:10.354Z,100.00
2022-12-18T00:43:38.813Z,100.00
2022-12-18T00:46:06.157Z,100.00
2022-12-18T00:48:33.581Z,100.00
2022-12-18T00:51:00.307Z,100.00
2022-12-18T00:53:27.314Z,100.00
2022-12-18T00:55:54.063Z,100.00
2022-12-18T00:58:21.126Z,100.00
2022-12-18T01:00:47.875Z,100.00
2022-12-18T01:03:15.345Z,100.00
2022-12-18T01:05:43.249Z,100.00
2022-12-18T01:08:10.533Z,100.00
2022-12-18T01:10:37.306Z,100.00
2022-12-18T01:13:04.410Z,100.00
2022-12-18T01:15:31.116Z,100.00
2022-12-18T01:17:58.246Z,100.00
2022-12-18T01:20:25.032Z,100.00
2022-12-18T01:22:52.073Z,100.00
2022-12-18T01:25:18.881Z,100.00
2022-12-18T01:27:45.860Z,100.00
2022-12-18T01:30:12.929Z,100.00
2022-12-18T01:32:40.155Z,100.00
2022-12-18T01:35:07.781Z,100.00
2022-12-18T01:37:35.006Z,100.00
2022-12-18T01:40:01.724Z,100.00
2022-12-18T01:42:28.786Z,100.00
2022-12-18T01:44:58.626Z,100.00
2022-12-18T01:47:34.738Z,100.00
2022-12-18T01:50:15.552Z,100.00
2022-12-18T01:52:46.019Z,100.00
2022-12-18T01:55:14.093Z,100.00
2022-12-18T01:57:42.290Z,100.00
2022-12-18T02:00:14.116Z,100.00
2022-12-18T02:02:46.124Z,100.00
2022-12-18T02:05:17.253Z,100.00
2022-12-18T02:08:22.375Z,100.00
2022-12-18T02:11:23.860Z,100.00
2022-12-18T02:14:08.400Z,100.00
2022-12-18T02:16:51.549Z,100.00
2022-12-18T02:19:40.198Z,100.00
2022-12-18T02:22:42.934Z,100.00
2022-12-18T02:25:31.435Z,100.00
2022-12-18T02:28:02.698Z,100.00
2022-12-18T02:30:34.771Z,100.00
2022-12-18T02:33:05.023Z,100.00
2022-12-18T02:35:34.709Z,100.00
2022-12-18T02:38:02.752Z,100.00
2022-12-18T02:40:31.226Z,100.00
2022-12-18T02:43:08.150Z,100.00
2022-12-18T02:45:35.202Z,100.00
2022-12-18T02:48:02.287Z,100.00
2022-12-18T02:50:51.464Z,100.00
2022-12-18T02:53:27.386Z,100.00
2022-12-18T02:56:21.948Z,100.00
2022-12-18T02:59:08.334Z,100.00
2022-12-18T03:01:50.157Z,100.00
2022-12-18T03:04:16.948Z,100.00
2022-12-18T03:06:50.779Z,100.00
2022-12-18T03:09:31.033Z,100.00
2022-12-18T03:12:26.224Z,100.00
2022-12-18T03:15:13.245Z,100.00
2022-12-18T03:18:08.658Z,100.00
2022-12-18T03:20:37.453Z,100.00
2022-12-18T03:23:10.643Z,100.00
2022-12-18T03:25:41.868Z,100.00
2022-12-18T03:28:14.369Z,100.00
2022-12-18T03:30:44.888Z,100.00
2022-12-18T03:33:20.622Z,100.00
2022-12-18T03:35:47.864Z,100.00
2022-12-18T03:38:15.275Z,100.00
2022-12-18T03:41:00.969Z,100.00
2022-12-18T03:43:30.846Z,100.00
2022-12-18T03:46:08.527Z,100.00
2022-12-18T03:49:11.359Z,100.00
2022-12-18T03:51:43.329Z,100.00
2022-12-18T03:54:12.093Z,100.00
2022-12-18T03:56:45.411Z,100.00
2022-12-18T03:59:14.934Z,100.00
2022-12-18T04:01:48.601Z,100.00
2022-12-18T04:04:19.262Z,100.00
2022-12-18T04:06:49.026Z,100.00
2022-12-18T04:09:16.442Z,100.00
2022-12-18T04:11:46.855Z,100.00
2022-12-18T04:14:17.584Z,100.00
2022-12-18T04:16:44.963Z,100.00
2022-12-18T04:19:12.149Z,100.00
2022-12-18T04:21:38.942Z,100.00
2022-12-18T04:24:06.098Z,100.00
2022-12-18T04:26:32.956Z,100.00
2022-12-18T04:28:59.962Z,100.00
2022-12-18T04:31:26.965Z,100.00
2022-12-18T04:33:54.007Z,100.00
2022-12-18T04:36:20.798Z,100.00
2022-12-18T04:38:47.784Z,100.00
2022-12-18T04:41:14.551Z,100.00
2022-12-18T04:43:41.782Z,100.00
2022-12-18T04:46:09.736Z,100.00
2022-12-18T04:48:37.417Z,100.00
2022-12-18T04:51:05.518Z,100.00
2022-12-18T04:53:33.065Z,100.00
2022-12-18T04:56:11.306Z,100.00
2022-12-18T04:58:40.351Z,100.00
2022-12-18T05:01:11.114Z,100.00
2022-12-18T05:03:39.267Z,100.00
2022-12-18T05:06:06.988Z,100.00
2022-12-18T05:08:34.389Z,100.00
2022-12-18T05:11:02.799Z,100.00
2022-12-18T05:13:30.496Z,100.00
2022-12-18T05:15:57.743Z,100.00
2022-12-18T05:18:25.305Z,100.00
2022-12-18T05:20:53.282Z,100.00
2022-12-18T05:23:21.362Z,100.00
2022-12-18T05:25:59.562Z,100.00
2022-12-18T05:28:28.759Z,100.00
2022-12-18T05:30:57.632Z,100.00
2022-12-18T05:33:26.516Z,100.00
2022-12-18T05:35:58.794Z,100.00
2022-12-18T05:38:27.646Z,100.00
2022-12-18T05:40:54.766Z,100.00
2022-12-18T05:43:22.859Z,100.00
2022-12-18T05:45:50.253Z,100.00
2022-12-18T05:48:17.778Z,100.00
2022-12-18T05:50:46.643Z,100.00
2022-12-18T05:53:15.450Z,100.00
2022-12-18T05:55:43.186Z,100.00
2022-12-18T05:58:11.626Z,100.00
2022-12-18T06:00:43.742Z,100.00
2022-12-18T06:03:12.302Z,100.00
2022-12-18T06:05:40.934Z,100.00
2022-12-18T06:08:09.207Z,100.00
2022-12-18T06:10:35.927Z,100.00
2022-12-18T06:13:03.088Z,100.00
2022-12-18T06:15:33.300Z,100.00
2022-12-18T06:18:01.900Z,100.00
2022-12-18T06:20:33.197Z,100.00
2022-12-18T06:23:01.262Z,100.00
2022-12-18T06:25:28.039Z,100.00
2022-12-18T06:27:55.177Z,100.00
2022-12-18T06:30:22.005Z,100.00
2022-12-18T06:32:54.687Z,100.00
2022-12-18T06:35:23.571Z,100.00
2022-12-18T06:37:50.740Z,100.00
2022-12-18T06:40:17.731Z,100.00
2022-12-18T06:42:44.730Z,100.00
2022-12-18T06:45:12.508Z,100.00
2022-12-18T06:47:39.557Z,100.00
2022-12-18T06:50:08.167Z,100.00
2022-12-18T06:52:35.265Z,100.00
2022-12-18T06:55:02.060Z,100.00
2022-12-18T06:57:29.397Z,100.00
2022-12-18T06:59:56.170Z,100.00
2022-12-18T07:02:23.377Z,100.00
2022-12-18T07:04:50.147Z,100.00
2022-12-18T07:07:17.372Z,100.00
2022-12-18T07:09:44.209Z,100.00
2022-12-18T07:12:11.294Z,100.00
2022-12-18T07:14:38.239Z,100.00
2022-12-18T07:17:05.341Z,100.00
2022-12-18T07:19:33.551Z,100.00
2022-12-18T07:22:01.421Z,100.00
2022-12-18T07:24:28.903Z,100.00
2022-12-18T07:26:55.958Z,100.00
2022-12-18T07:29:22.723Z,100.00
2022-12-18T07:31:52.292Z,100.00
2022-12-18T07:34:19.071Z,100.00
2022-12-18T07:36:46.084Z,100.00
2022-12-18T07:39:13.002Z,100.00
2022-12-18T07:41:46.688Z,100.00
2022-12-18T07:44:14.066Z,100.00
2022-12-18T07:46:41.266Z,100.00
2022-12-18T07:49:08.160Z,100.00
2022-12-18T07:51:35.180Z,100.00
2022-12-18T07:54:01.990Z,100.00
2022-12-18T07:56:31.372Z,100.00
2022-12-18T07:58:59.922Z,100.00
2022-12-18T08:01:27.368Z,100.00
2022-12-18T08:03:54.349Z,100.00
2022-12-18T08:06:23.315Z,100.00
2022-12-18T08:08:54.950Z,100.00
2022-12-18T08:11:23.729Z,100.00
2022-12-18T08:13:50.619Z,100.00
2022-12-18T08:16:17.989Z,100.00
2022-12-18T08:18:44.860Z,100.00
2022-12-18T08:21:14.111Z,100.00
2022-12-18T08:23:43.257Z,100.00
2022-12-18T08:26:12.654Z,100.00
2022-12-18T08:28:40.008Z,100.00
2022-12-18T08:31:10.362Z,100.00
2022-12-18T08:33:38.845Z,100.00
2022-12-18T08:36:07.033Z,100.00
2022-12-18T08:38:34.271Z,100.00
2022-12-18T08:41:10.127Z,100.00
2022-12-18T08:43:55.936Z,100.00
2022-12-18T08:46:25.719Z,100.00
2022-12-18T08:48:53.485Z,100.00
2022-12-18T08:51:20.942Z,100.00
2022-12-18T08:53:48.225Z,100.00
2022-12-18T08:56:15.986Z,100.00
2022-12-18T08:58:43.722Z,100.00
2022-12-18T09:01:13.026Z,100.00
2022-12-18T09:03:41.157Z,100.00
2022-12-18T09:06:08.984Z,100.00
2022-12-18T09:08:36.384Z,100.00
2022-12-18T09:11:04.116Z,100.00
2022-12-18T09:13:30.850Z,100.00
2022-12-18T09:15:57.929Z,99.50
2022-12-18T09:18:25.326Z,99.82
2022-12-18T09:20:53.892Z,97.22
2022-12-18T09:23:23.441Z,96.43
2022-12-18T09:25:50.511Z,95.08
2022-12-18T09:28:19.352Z,91.84
2022-12-18T09:30:48.930Z,91.17
2022-12-18T09:33:17.222Z,88.93
2022-12-18T09:35:46.204Z,87.08
2022-12-18T09:38:15.733Z,84.85
2022-12-18T09:40:49.690Z,83.06
2022-12-18T09:43:24.294Z,80.92
2022-12-18T09:46:06.156Z,80.34
2022-12-18T09:48:38.122Z,77.81
2022-12-18T09:51:14.426Z,76.64
2022-12-18T09:53:45.534Z,74.39
2022-12-18T09:56:19.357Z,73.64
2022-12-18T09:59:03.701Z,75.26
2022-12-18T10:01:41.460Z,75.61
2022-12-18T10:04:10.642Z,74.62
2022-12-18T10:06:54.649Z,71.37
2022-12-18T10:09:47.735Z,70.92
2022-12-18T10:12:32.766Z,71.99
2022-12-18T10:15:20.557Z,71.90
2022-12-18T10:18:00.341Z,71.56
2022-12-18T10:20:44.769Z,71.81
2022-12-18T10:23:23.074Z,69.82
2022-12-18T10:26:10.029Z,68.11
2022-12-18T10:28:40.321Z,68.09
2022-12-18T10:31:33.770Z,65.74
2022-12-18T10:34:00.844Z,65.65
2022-12-18T10:36:27.730Z,63.73
2022-12-18T10:38:54.775Z,63.59
2022-12-18T10:41:26.917Z,62.06
2022-12-18T10:44:21.381Z,60.07
2022-12-18T10:46:51.370Z,60.54
2022-12-18T10:49:28.638Z,59.59
2022-12-18T10:52:19.213Z,58.76
2022-12-18T10:55:06.261Z,59.47
2022-12-18T10:57:42.446Z,60.46
2022-12-18T11:00:21.893Z,60.17
2022-12-18T11:02:49.215Z,60.54
2022-12-18T11:05:27.903Z,58.75
2022-12-18T11:07:55.394Z,56.90
2022-12-18T11:10:29.236Z,57.78
2022-12-18T11:12:56.872Z,57.43
2022-12-18T11:15:31.642Z,58.48
2022-12-18T11:17:59.248Z,57.22
2022-12-18T11:20:33.437Z,57.93
2022-12-18T11:23:02.649Z,57.59
2022-12-18T11:25:34.619Z,58.92
2022-12-18T11:28:04.835Z,58.64
2022-12-18T11:30:37.635Z,59.86
2022-12-18T11:33:13.385Z,59.67
2022-12-18T11:35:50.600Z,59.09
2022-12-18T11:38:32.003Z,59.44
2022-12-18T11:41:05.358Z,60.44
2022-12-18T11:43:53.914Z,59.68
2022-12-18T11:46:46.880Z,60.84
2022-12-18T11:49:20.836Z,62.35
2022-12-18T11:52:03.812Z,63.28
2022-12-18T11:54:30.751Z,63.46
2022-12-18T11:57:27.433Z,66.19
2022-12-18T12:00:15.906Z,67.48
2022-12-18T12:03:13.224Z,65.80
2022-12-18T12:06:21.454Z,65.68
2022-12-18T12:09:00.802Z,65.50
2022-12-18T12:12:04.481Z,65.14
2022-12-18T12:14:37.705Z,65.60
2022-12-18T12:17:31.909Z,66.06
2022-12-18T12:20:20.692Z,65.45
2022-12-18T12:22:47.387Z,66.64
2022-12-18T12:25:42.409Z,65.79
2022-12-18T12:28:27.998Z,64.71
2022-12-18T12:31:11.128Z,65.36
2022-12-18T12:33:47.578Z,68.31
2022-12-18T12:36:25.757Z,66.49
2022-12-18T12:39:01.658Z,67.83
2022-12-18T12:41:53.324Z,65.17
2022-12-18T12:44:34.688Z,65.77
2022-12-18T12:47:29.485Z,67.90
2022-12-18T12:49:58.040Z,67.63
2022-12-18T12:52:30.522Z,67.39
2022-12-18T12:54:58.450Z,68.03
2022-12-18T12:57:31.562Z,69.15
2022-12-18T12:59:59.068Z,69.24
2022-12-18T13:02:48.380Z,67.78
2022-12-18T13:05:29.315Z,68.84
2022-12-18T13:08:10.512Z,70.92
2022-12-18T13:10:38.799Z,70.46
2022-12-18T13:13:10.458Z,70.47
2022-12-18T13:15:41.912Z,72.27
2022-12-18T13:18:09.142Z,70.86
2022-12-18T13:20:43.080Z,73.07
2022-12-18T13:23:26.562Z,70.72
2022-12-18T13:26:10.840Z,70.15
2022-12-18T13:28:49.727Z,70.35
2022-12-18T13:31:42.871Z,70.86
2022-12-18T13:34:28.084Z,70.66
2022-12-18T13:37:17.643Z,70.47
2022-12-18T13:39:44.909Z,69.30
2022-12-18T13:42:32.611Z,68.24
2022-12-18T13:44:59.882Z,67.08
2022-12-18T13:47:36.172Z,67.72
2022-12-18T13:50:11.916Z,67.57
2022-12-18T13:52:40.412Z,68.41
2022-12-18T13:55:17.262Z,68.81
2022-12-18T13:57:43.999Z,68.14
2022-12-18T14:00:26.250Z,70.83
2022-12-18T14:02:53.312Z,71.18
2022-12-18T14:05:30.738Z,69.61
2022-12-18T14:08:06.907Z,69.35
2022-12-18T14:10:48.433Z,70.08
2022-12-18T14:13:25.185Z,70.95
2022-12-18T14:15:52.647Z,73.28
2022-12-18T14:18:24.351Z,72.40
2022-12-18T14:20:54.109Z,74.42
2022-12-18T14:23:39.092Z,76.65
2022-12-18T14:26:30.073Z,75.16
2022-12-18T14:28:59.159Z,76.59
2022-12-18T14:31:28.175Z,76.47
2022-12-18T14:33:55.438Z,76.70
2022-12-18T14:36:25.545Z,77.73
2022-12-18T14:38:54.945Z,77.45
2022-12-18T14:41:23.495Z,76.97
2022-12-18T14:43:55.393Z,78.12
2022-12-18T14:46:36.866Z,79.50
2022-12-18T14:49:22.614Z,79.68
2022-12-18T14:51:52.205Z,80.08
2022-12-18T14:54:20.771Z,81.71
2022-12-18T14:56:52.139Z,79.47
2022-12-18T14:59:24.748Z,79.84
2022-12-18T15:01:55.107Z,80.39
2022-12-18T15:04:36.103Z,83.23
2022-12-18T15:07:11.908Z,82.31
2022-12-18T15:09:41.077Z,85.27
2022-12-18T15:12:44.879Z,88.22
2022-12-18T15:15:47.961Z,87.93
2022-12-18T15:18:21.030Z,88.86
2022-12-18T15:20:50.900Z,89.57
2022-12-18T15:23:25.408Z,90.05
2022-12-18T15:26:01.557Z,91.34
2022-12-18T15:28:35.861Z,91.86
2022-12-18T15:31:04.342Z,92.19
2022-12-18T15:33:34.720Z,92.21
2022-12-18T15:36:09.529Z,92.63
2022-12-18T15:38:37.244Z,93.46
2022-12-18T15:41:14.605Z,93.78
2022-12-18T15:43:42.345Z,94.50
2022-12-18T15:46:15.045Z,94.43
2022-12-18T15:48:45.566Z,95.44
2022-12-18T15:51:22.568Z,96.64
2022-12-18T15:53:52.876Z,97.03
2022-12-18T15:56:38.100Z,97.24
2022-12-18T15:59:16.330Z,94.88
2022-12-18T16:01:46.193Z,93.71
2022-12-18T16:04:15.342Z,96.47
2022-12-18T16:07:05.627Z,97.32
2022-12-18T16:09:29.588Z,98.26
2022-12-18T16:11:56.360Z,99.34
2022-12-18T16:14:27.610Z,99.83
2022-12-18T16:16:57.322Z,100.00
2022-12-18T16:19:24.755Z,100.00
2022-12-18T16:21:53.734Z,100.00
2022-12-18T16:24:23.518Z,100.00
2022-12-18T16:26:52.427Z,100.00
2022-12-18T16:29:25.598Z,100.00
2022-12-18T16:31:53.075Z,100.00
2022-12-18T16:34:29.309Z,100.00
2022-12-18T16:37:07.522Z,100.00
2022-12-18T16:39:35.935Z,100.00
2022-12-18T16:42:17.248Z,100.00
2022-12-18T16:44:44.913Z,100.00
2022-12-18T16:47:13.842Z,100.00
2022-12-18T16:49:45.873Z,100.00
2022-12-18T16:52:12.925Z,100.00
2022-12-18T16:54:39.952Z,100.00
2022-12-18T16:57:06.931Z,100.00
2022-12-18T16:59:34.959Z,100.00
2022-12-18T17:02:02.102Z,100.00
2022-12-18T17:04:29.319Z,100.00
2022-12-18T17:06:56.085Z,100.00
2022-12-18T17:09:26.422Z,100.00
2022-12-18T17:11:54.119Z,100.00
2022-12-18T17:14:23.636Z,100.00
2022-12-18T17:17:19.344Z,100.00
2022-12-18T17:19:38.798Z,100.00
2022-12-18T17:22:05.601Z,100.00
2022-12-18T17:24:35.210Z,100.00
2022-12-18T17:27:03.630Z,100.00
2022-12-18T17:29:30.920Z,100.00
2022-12-18T17:32:00.172Z,100.00
2022-12-18T17:34:28.225Z,100.00
2022-12-18T17:36:55.829Z,100.00
2022-12-18T17:39:22.978Z,100.00
2022-12-18T17:41:50.260Z,100.00
2022-12-18T17:44:18.034Z,100.00
2022-12-18T17:46:46.198Z,100.00
2022-12-18T17:49:14.113Z,100.00
2022-12-18T17:51:43.071Z,100.00
2022-12-18T17:54:11.162Z,100.00
2022-12-18T17:56:38.614Z,100.00
2022-12-18T17:59:07.195Z,100.00
2022-12-18T18:01:37.285Z,100.00
2022-12-18T18:04:07.404Z,100.00
2022-12-18T18:06:34.464Z,100.00
2022-12-18T18:09:11.785Z,100.00
2022-12-18T18:12:03.776Z,100.00
2022-12-18T18:14:31.524Z,100.00
2022-12-18T18:17:04.287Z,100.00
2022-12-18T18:19:32.224Z,100.00
2022-12-18T18:21:58.982Z,100.00
2022-12-18T18:24:26.356Z,100.00
2022-12-18T18:26:53.371Z,100.00
2022-12-18T18:29:23.671Z,100.00
2022-12-18T18:31:52.925Z,100.00
2022-12-18T18:34:24.998Z,100.00
2022-12-18T18:36:52.197Z,100.00
2022-12-18T18:39:19.919Z,100.00
2022-12-18T18:41:48.562Z,100.00
2022-12-18T18:44:26.363Z,100.00
2022-12-18T18:46:55.198Z,100.00
2022-12-18T18:49:27.573Z,100.00
2022-12-18T18:51:55.439Z,100.00
2022-12-18T18:54:22.675Z,100.00
2022-12-18T18:59:37.447Z,100.00
2022-12-18T19:02:05.006Z,100.00
2022-12-18T19:04:33.655Z,100.00
2022-12-18T19:07:00.953Z,100.00
2022-12-18T19:09:28.395Z,100.00
2022-12-18T19:12:14.344Z,100.00
2022-12-18T19:14:41.584Z,100.00
2022-12-18T19:17:09.773Z,100.00
2022-12-18T19:19:37.038Z,100.00
2022-12-18T19:22:04.145Z,100.00
2022-12-18T19:24:31.500Z,100.00
2022-12-18T19:26:58.356Z,100.00
2022-12-18T19:29:25.651Z,100.00
2022-12-18T19:31:52.682Z,100.00
2022-12-18T19:34:20.271Z,100.00
2022-12-18T19:36:47.227Z,100.00
2022-12-18T19:39:17.133Z,100.00
2022-12-18T19:41:44.769Z,100.00
2022-12-18T19:44:14.018Z,100.00
2022-12-18T19:46:42.441Z,100.00
2022-12-18T19:49:11.001Z,100.00
2022-12-18T19:51:38.788Z,100.00
2022-12-18T19:54:05.949Z,100.00
2022-12-18T19:56:34.991Z,100.00
2022-12-18T19:59:03.434Z,100.00
2022-12-18T20:01:30.942Z,100.00
2022-12-18T20:03:58.813Z,100.00
2022-12-18T20:06:31.380Z,100.00
2022-12-18T20:09:06.669Z,100.00
2022-12-18T20:11:41.397Z,100.00
2022-12-18T20:14:13.692Z,100.00
2022-12-18T20:16:41.014Z,100.00
2022-12-18T20:19:09.940Z,100.00
2022-12-18T20:21:37.619Z,100.00
2022-12-18T20:24:05.057Z,100.00
2022-12-18T20:26:31.849Z,100.00
2022-12-18T20:28:58.877Z,100.00
2022-12-18T20:31:25.734Z,100.00
2022-12-18T20:33:54.465Z,100.00
2022-12-18T20:36:25.890Z,100.00
2022-12-18T20:38:55.675Z,100.00
2022-12-18T20:41:25.216Z,100.00
2022-12-18T20:43:52.303Z,100.00
2022-12-18T20:46:19.313Z,100.00
2022-12-18T20:48:47.767Z,100.00
2022-12-18T20:51:17.274Z,100.00
2022-12-18T20:53:45.606Z,100.00
2022-12-18T20:56:21.273Z,100.00
2022-12-18T20:58:50.384Z,100.00
2022-12-18T21:01:20.942Z,100.00
2022-12-18T21:03:49.159Z,100.00
2022-12-18T21:06:18.560Z,100.00
2022-12-18T21:08:46.157Z,100.00
2022-12-18T21:11:44.105Z,100.00
2022-12-18T21:14:16.883Z,100.00
2022-12-18T21:16:44.451Z,100.00
2022-12-18T21:19:12.902Z,100.00
2022-12-18T21:21:40.483Z,100.00
2022-12-18T21:24:08.233Z,100.00
2022-12-18T21:26:35.065Z,100.00
2022-12-18T21:29:04.777Z,100.00
2022-12-18T21:31:35.295Z,100.00
2022-12-18T21:34:03.609Z,100.00
2022-12-18T21:36:31.872Z,100.00
2022-12-18T21:38:59.711Z,100.00
2022-12-18T21:41:46.093Z,100.00
2022-12-18T21:44:17.977Z,100.00
2022-12-18T21:46:52.989Z,100.00
2022-12-18T21:49:23.470Z,100.00
2022-12-18T21:51:55.660Z,100.00
2022-12-18T21:54:23.646Z,100.00
2022-12-18T21:56:55.735Z,100.00
2022-12-18T21:59:38.525Z,100.00
2022-12-18T22:02:08.326Z,100.00
2022-12-18T22:04:35.862Z,100.00
2022-12-18T22:07:06.112Z,100.00
2022-12-18T22:09:34.056Z,100.00
2022-12-18T22:12:01.199Z,100.00
2022-12-18T22:14:28.413Z,100.00
2022-12-18T22:16:58.422Z,100.00
2022-12-18T22:19:25.741Z,100.00
2022-12-18T22:21:53.393Z,100.00
2022-12-18T22:24:27.276Z,100.00
2022-12-18T22:26:56.195Z,100.00
2022-12-18T22:29:47.866Z,100.00
2022-12-18T22:32:22.228Z,100.00
2022-12-18T22:35:07.940Z,100.00
2022-12-18T22:37:37.294Z,100.00
2022-12-18T22:40:06.052Z,100.00
2022-12-18T22:42:34.271Z,100.00
2022-12-18T22:45:03.720Z,100.00
2022-12-18T22:47:30.868Z,100.00
2022-12-18T22:49:58.426Z,100.00
2022-12-18T22:52:25.807Z,100.00
2022-12-18T22:54:54.215Z,100.00
2022-12-18T22:57:22.661Z,100.00
2022-12-18T22:59:50.801Z,100.00
2022-12-18T23:02:19.054Z,100.00
2022-12-18T23:04:47.615Z,100.00
2022-12-18T23:07:15.088Z,100.00
2022-12-18T23:09:42.248Z,100.00
2022-12-18T23:12:15.137Z,100.00
2022-12-18T23:14:42.798Z,100.00
2022-12-18T23:17:09.606Z,100.00
2022-12-18T23:19:36.831Z,100.00
2022-12-18T23:22:08.599Z,100.00
2022-12-18T23:24:41.135Z,100.00
2022-12-18T23:27:11.544Z,100.00
2022-12-18T23:29:40.404Z,100.00
2022-12-18T23:32:07.701Z,100.00
2022-12-18T23:34:34.895Z,100.00
2022-12-18T23:37:03.579Z,100.00
2022-12-18T23:39:30.704Z,100.00
2022-12-18T23:41:58.539Z,100.00
2022-12-18T23:44:25.756Z,100.00
2022-12-18T23:46:52.808Z,100.00
2022-12-18T23:49:19.973Z,100.00
2022-12-18T23:51:49.908Z,100.00
2022-12-18T23:54:17.000Z,100.00
2022-12-18T23:56:46.301Z,100.00
2022-12-18T23:59:13.970Z,100.00
